Time;durP1;ratioP1;P1;durP2;ratioP2;P2;SDS_P1;SDS_P2;PMS_P1;PMS_P2;Temp;Humidity;BMP_temperature;BMP_pressure;BME280_temperature;BME280_humidity;BME280_pressure;Samples;Min_cycle;Max_cycle;Signal;HPM_P1;HPM_P2
2020/12/16 00:00:51;;;;;;;54.40;25.48;;;9.00;95.80;;;;;;5032098;28;20028;-88
2020/12/16 00:03:17;;;;;;;90.68;27.38;;;9.00;95.70;;;;;;5014231;28;20119;-88
2020/12/16 00:05:43;;;;;;;42.38;22.88;;;9.00;95.80;;;;;;5034384;28;20024;-88
2020/12/16 00:08:09;;;;;;;47.78;23.73;;;9.00;95.80;;;;;;5002380;28;20034;-88
2020/12/16 00:10:34;;;;;;;40.10;20.38;;;9.00;95.90;;;;;;5018928;28;20026;-88
2020/12/16 00:13:00;;;;;;;105.47;26.63;;;9.10;96.00;;;;;;5030543;28;20116;-88
2020/12/16 00:15:26;;;;;;;73.97;25.30;;;9.10;95.90;;;;;;5015966;28;20037;-88
2020/12/16 00:17:52;;;;;;;44.47;22.75;;;9.10;95.80;;;;;;5005196;28;20036;-88
2020/12/16 00:20:17;;;;;;;58.63;21.13;;;9.10;95.90;;;;;;5017980;28;20372;-88
2020/12/16 00:22:43;;;;;;;59.45;23.85;;;9.10;95.90;;;;;;5021422;28;20025;-88
2020/12/16 00:25:10;;;;;;;60.58;25.05;;;9.10;95.90;;;;;;5038677;23;20496;-88
2020/12/16 00:27:36;;;;;;;40.13;21.02;;;9.00;95.80;;;;;;5057594;28;20024;-88
2020/12/16 00:30:05;;;;;;;64.78;22.25;;;9.10;95.90;;;;;;5039075;28;20104;-87
2020/12/16 00:32:31;;;;;;;41.78;20.67;;;9.10;96.00;;;;;;5048377;28;20036;-87
2020/12/16 00:38:18;;;;;;;69.35;25.10;;;9.10;95.90;;;;;;5055934;28;20078;-88
2020/12/16 00:40:44;;;;;;;47.47;23.73;;;9.10;95.80;;;;;;5053397;28;20103;-87
2020/12/16 00:43:10;;;;;;;37.97;20.42;;;9.10;95.90;;;;;;5021035;28;20119;-88
2020/12/16 00:45:35;;;;;;;38.50;18.90;;;9.10;96.00;;;;;;5037910;28;20040;-88
2020/12/16 00:48:01;;;;;;;36.53;19.05;;;9.10;96.10;;;;;;5030241;28;20432;-88
2020/12/16 00:50:26;;;;;;;36.33;18.42;;;9.10;96.10;;;;;;5026981;28;20025;-87
2020/12/16 00:52:52;;;;;;;33.67;17.42;;;9.10;96.10;;;;;;5037398;28;20029;-87
2020/12/16 00:55:18;;;;;;;40.60;20.52;;;9.20;96.10;;;;;;5037675;28;20091;-87
2020/12/16 00:57:45;;;;;;;35.00;18.45;;;9.20;96.10;;;;;;5052728;28;20017;-88
2020/12/16 01:00:11;;;;;;;34.10;18.40;;;9.20;96.10;;;;;;5029943;28;20116;-88
2020/12/16 01:02:41;;;;;;;41.63;19.77;;;9.20;96.00;;;;;;5021753;28;20487;-87
2020/12/16 01:05:07;;;;;;;93.15;25.67;;;9.20;96.00;;;;;;5071995;28;20397;-87
2020/12/16 01:07:33;;;;;;;31.73;19.42;;;9.20;95.80;;;;;;5057395;28;20488;-88
2020/12/16 01:09:58;;;;;;;39.05;19.77;;;9.20;96.00;;;;;;5027151;28;20032;-87
2020/12/16 01:12:24;;;;;;;29.42;16.23;;;9.20;96.10;;;;;;5028250;28;20033;-88
2020/12/16 01:14:50;;;;;;;60.58;20.25;;;9.20;96.10;;;;;;5034906;28;20025;-88
2020/12/16 01:17:16;;;;;;;47.28;19.90;;;9.20;96.10;;;;;;5029028;28;20032;-87
2020/12/16 01:19:41;;;;;;;61.97;21.48;;;9.20;96.10;;;;;;5018953;28;20048;-87
2020/12/16 01:22:07;;;;;;;57.38;20.63;;;9.20;96.00;;;;;;5024004;28;20023;-87
2020/12/16 01:24:32;;;;;;;40.40;18.40;;;9.20;96.00;;;;;;5043974;28;20049;-87
2020/12/16 01:26:58;;;;;;;32.58;19.58;;;9.20;96.10;;;;;;5054353;28;20032;-87
2020/12/16 01:29:24;;;;;;;39.30;18.67;;;9.10;95.90;;;;;;5037164;28;20032;-87
2020/12/16 01:31:50;;;;;;;43.58;22.48;;;9.10;96.00;;;;;;5035192;28;20029;-87
2020/12/16 01:34:40;;;;;;;44.22;20.13;;;9.10;95.90;;;;;;5047670;28;20481;-88
2020/12/16 01:37:07;;;;;;;35.30;19.75;;;9.10;95.90;;;;;;5049435;28;20032;-88
2020/12/16 01:39:32;;;;;;;47.42;21.88;;;9.10;96.00;;;;;;5063043;28;20066;-88
2020/12/16 01:41:58;;;;;;;46.85;20.58;;;9.10;95.90;;;;;;5057070;28;20025;-88
2020/12/16 01:44:29;;;;;;;69.32;23.55;;;9.10;95.90;;;;;;5031668;28;20474;-87
2020/12/16 01:46:58;;;;;;;50.08;20.73;;;9.10;95.80;;;;;;5059813;28;20047;-88
2020/12/16 01:49:24;;;;;;;45.83;21.23;;;9.00;95.90;;;;;;5055550;28;20025;-87
2020/12/16 01:51:53;;;;;;;43.42;20.02;;;9.00;95.90;;;;;;5043683;28;20466;-87
2020/12/16 01:54:21;;;;;;;62.72;21.73;;;9.00;96.00;;;;;;5045274;28;20092;-88
2020/12/16 01:56:50;;;;;;;85.57;23.60;;;9.00;95.90;;;;;;5027344;28;20052;-88
2020/12/16 01:59:17;;;;;;;36.10;19.92;;;9.00;95.80;;;;;;5025235;28;20107;-87
2020/12/16 02:01:45;;;;;;;35.65;19.65;;;9.00;96.00;;;;;;5027834;28;20128;-87
2020/12/16 02:04:16;;;;;;;31.05;16.80;;;9.00;96.00;;;;;;5007475;28;20559;-87
2020/12/16 02:06:44;;;;;;;69.70;20.50;;;9.00;96.00;;;;;;5036054;28;20037;-87
2020/12/16 02:09:11;;;;;;;38.60;17.58;;;9.00;96.00;;;;;;5055188;28;20027;-87
2020/12/16 02:11:38;;;;;;;40.13;17.60;;;9.00;96.00;;;;;;5030197;28;20103;-87
2020/12/16 02:14:06;;;;;;;41.50;18.38;;;9.00;96.00;;;;;;5030798;28;20029;-87
2020/12/16 02:16:31;;;;;;;30.08;17.40;;;9.00;96.00;;;;;;5027258;28;20044;-87
2020/12/16 02:18:57;;;;;;;34.35;18.60;;;9.00;96.00;;;;;;5036134;28;20555;-87
2020/12/16 02:21:23;;;;;;;44.03;20.27;;;9.00;95.90;;;;;;5053231;28;20029;-87
2020/12/16 02:23:51;;;;;;;71.68;23.95;;;9.00;95.90;;;;;;5036301;28;20029;-88
2020/12/16 02:26:17;;;;;;;43.08;20.92;;;8.90;95.80;;;;;;5052118;28;20071;-88
2020/12/16 02:28:43;;;;;;;83.75;24.77;;;8.90;95.80;;;;;;5046325;28;20025;-88
2020/12/16 02:31:10;;;;;;;35.15;20.42;;;8.90;95.60;;;;;;5025517;28;20029;-88
2020/12/16 02:33:35;;;;;;;91.78;23.50;;;8.90;95.80;;;;;;5038947;28;20481;-88
2020/12/16 02:36:01;;;;;;;37.53;21.13;;;8.90;95.70;;;;;;5025403;28;20087;-88
2020/12/16 02:38:27;;;;;;;54.13;22.25;;;8.80;95.70;;;;;;5035480;28;20079;-88
2020/12/16 02:40:53;;;;;;;28.40;20.50;;;8.80;95.60;;;;;;5039056;28;20025;-88
2020/12/16 02:43:18;;;;;;;58.28;20.25;;;8.70;95.60;;;;;;5038332;28;20020;-88
2020/12/16 02:45:44;;;;;;;98.95;25.67;;;8.70;95.70;;;;;;5035416;28;20517;-88
2020/12/16 02:48:10;;;;;;;27.77;18.90;;;8.70;95.50;;;;;;5019829;28;20029;-88
2020/12/16 02:50:35;;;;;;;37.92;18.15;;;8.70;95.80;;;;;;5036141;28;20421;-88
2020/12/16 02:53:01;;;;;;;47.58;18.48;;;8.70;95.70;;;;;;5039056;28;20056;-89
2020/12/16 02:55:27;;;;;;;40.75;18.70;;;8.70;95.80;;;;;;5038600;28;20497;-88
2020/12/16 02:57:52;;;;;;;57.20;20.58;;;8.70;95.70;;;;;;5035326;28;20037;-88
2020/12/16 03:00:18;;;;;;;40.47;17.73;;;8.60;95.50;;;;;;5018542;28;20044;-88
2020/12/16 03:06:06;;;;;;;31.33;18.10;;;8.60;95.70;;;;;;5059038;28;20083;-89
2020/12/16 03:08:31;;;;;;;105.32;27.35;;;8.50;95.50;;;;;;5034930;28;20025;-89
2020/12/16 03:10:57;;;;;;;52.95;20.25;;;8.50;95.20;;;;;;5044948;28;20027;-89
2020/12/16 03:13:22;;;;;;;31.25;18.00;;;8.40;95.40;;;;;;5014098;28;20035;-88
2020/12/16 03:15:48;;;;;;;142.38;27.45;;;8.40;95.40;;;;;;5035265;28;20086;-88
2020/12/16 03:18:14;;;;;;;41.95;19.48;;;8.40;95.20;;;;;;5022002;28;20020;-88
2020/12/16 03:20:39;;;;;;;35.90;19.10;;;8.30;95.40;;;;;;5021186;28;20456;-88
2020/12/16 03:23:05;;;;;;;34.28;17.83;;;8.30;95.40;;;;;;5057490;28;20539;-88
2020/12/16 03:25:30;;;;;;;37.03;19.75;;;8.30;95.40;;;;;;5022595;28;20143;-88
2020/12/16 03:27:56;;;;;;;37.80;18.75;;;8.20;95.40;;;;;;5017556;28;20037;-88
2020/12/16 03:30:22;;;;;;;34.40;18.45;;;8.20;95.50;;;;;;5022671;28;20470;-88
2020/12/16 03:32:47;;;;;;;23.13;17.27;;;8.20;95.50;;;;;;5038975;28;20029;-88
2020/12/16 03:35:14;;;;;;;57.78;21.38;;;8.20;95.50;;;;;;5036295;28;20037;-88
2020/12/16 03:37:39;;;;;;;53.78;21.13;;;8.20;95.40;;;;;;5055796;28;20533;-88
2020/12/16 03:40:05;;;;;;;34.10;18.65;;;8.20;95.50;;;;;;5057045;28;20028;-88
2020/12/16 03:42:31;;;;;;;117.22;23.85;;;8.10;95.60;;;;;;5042646;28;20028;-88
2020/12/16 03:44:56;;;;;;;43.35;19.45;;;8.20;95.50;;;;;;5022471;28;20040;-88
2020/12/16 03:47:22;;;;;;;47.85;18.33;;;8.20;95.50;;;;;;5013537;28;20025;-88
2020/12/16 03:49:48;;;;;;;131.40;24.73;;;8.20;95.60;;;;;;5041966;28;20038;-89
2020/12/16 03:52:13;;;;;;;149.98;27.83;;;8.10;95.50;;;;;;5022630;28;20025;-88
2020/12/16 03:54:39;;;;;;;60.92;20.17;;;8.10;95.70;;;;;;5032996;28;20499;-88
2020/12/16 03:57:05;;;;;;;39.75;17.80;;;8.10;95.60;;;;;;5024540;28;20051;-88
2020/12/16 03:59:30;;;;;;;33.03;17.05;;;8.10;95.60;;;;;;5030936;28;20021;-88
2020/12/16 04:01:56;;;;;;;24.80;15.90;;;8.20;95.80;;;;;;5038136;28;20417;-88
2020/12/16 04:04:22;;;;;;;60.80;19.48;;;8.20;95.80;;;;;;5029491;28;20032;-88
2020/12/16 04:06:47;;;;;;;37.42;20.30;;;8.20;95.80;;;;;;5034933;28;20040;-88
2020/12/16 04:09:13;;;;;;;43.83;20.98;;;8.20;95.70;;;;;;5029362;28;20033;-88
2020/12/16 04:11:39;;;;;;;39.97;19.38;;;8.20;95.60;;;;;;5028257;28;20393;-88
2020/12/16 04:14:05;;;;;;;27.42;18.38;;;8.20;95.80;;;;;;5031637;28;20114;-88
2020/12/16 04:16:30;;;;;;;108.43;26.42;;;8.10;95.70;;;;;;5026748;28;20029;-89
2020/12/16 04:18:56;;;;;;;42.53;19.60;;;8.10;95.70;;;;;;5052320;28;20024;-88
2020/12/16 04:21:22;;;;;;;153.45;27.73;;;8.20;95.80;;;;;;5010920;28;20032;-88
2020/12/16 04:23:47;;;;;;;33.28;20.40;;;8.20;95.70;;;;;;5024852;28;20031;-88
2020/12/16 04:26:14;;;;;;;25.48;17.75;;;8.20;95.80;;;;;;5041211;28;20044;-88
2020/12/16 04:28:39;;;;;;;59.92;22.38;;;8.20;95.90;;;;;;5047503;28;20460;-89
2020/12/16 04:31:07;;;;;;;59.83;24.08;;;8.10;95.70;;;;;;5034977;28;20120;-88
2020/12/16 04:33:45;;;;;;;49.00;22.70;;;8.20;95.70;;;;;;5032924;28;20021;-88
2020/12/16 04:36:11;;;;;;;44.60;20.45;;;8.10;95.60;;;;;;5020692;28;20033;-88
2020/12/16 04:38:37;;;;;;;35.25;19.98;;;8.10;95.80;;;;;;5020999;28;20051;-89
2020/12/16 04:41:06;;;;;;;46.90;22.02;;;8.10;95.80;;;;;;5026561;28;20525;-88
2020/12/16 04:43:34;;;;;;;35.30;20.08;;;8.10;95.80;;;;;;5027447;28;20049;-88
2020/12/16 04:45:59;;;;;;;33.30;21.45;;;8.10;95.80;;;;;;5050213;28;20012;-89
2020/12/16 04:48:25;;;;;;;50.83;25.42;;;8.20;95.90;;;;;;5019630;28;20044;-88
2020/12/16 04:50:50;;;;;;;39.75;22.48;;;8.10;95.70;;;;;;5004709;28;20029;-89
2020/12/16 04:53:19;;;;;;;40.53;24.05;;;8.10;95.70;;;;;;5053641;28;20058;-94
2020/12/16 04:55:46;;;;;;;58.00;26.70;;;8.00;95.70;;;;;;5038367;28;20021;-94
2020/12/16 04:58:12;;;;;;;95.22;31.02;;;8.00;95.60;;;;;;5058038;28;20028;-94
2020/12/16 05:00:38;;;;;;;53.25;25.13;;;8.00;95.40;;;;;;5034012;28;20044;-94
2020/12/16 05:03:09;;;;;;;34.03;21.27;;;8.00;95.50;;;;;;5069262;28;20104;-94
2020/12/16 05:05:35;;;;;;;29.63;19.65;;;8.00;95.70;;;;;;5036090;28;20047;-94
2020/12/16 05:08:11;;;;;;;30.63;19.23;;;8.00;95.80;;;;;;5056091;28;20036;-94
2020/12/16 05:10:40;;;;;;;33.58;19.98;;;8.10;95.90;;;;;;5038578;28;20028;-94
2020/12/16 05:13:25;;;;;;;32.55;19.13;;;8.10;95.90;;;;;;5048999;28;20096;-94
2020/12/16 05:15:51;;;;;;;34.13;19.33;;;8.10;95.90;;;;;;5058683;28;20029;-94
2020/12/16 05:18:27;;;;;;;63.40;24.50;;;8.10;95.80;;;;;;5058096;28;20055;-94
2020/12/16 05:20:57;;;;;;;42.30;21.20;;;8.10;95.70;;;;;;5043729;28;20021;-94
2020/12/16 05:23:28;;;;;;;38.80;19.88;;;8.10;95.80;;;;;;5033050;28;20044;-94
2020/12/16 05:26:31;;;;;;;29.02;16.90;;;8.00;95.70;;;;;;5034882;28;20144;-94
2020/12/16 05:28:56;;;;;;;28.88;17.15;;;8.10;95.90;;;;;;5053918;28;20484;-94
2020/12/16 05:31:28;;;;;;;36.63;17.90;;;8.10;95.80;;;;;;5037822;28;20074;-93
2020/12/16 05:33:54;;;;;;;44.38;19.05;;;8.10;95.80;;;;;;5032599;28;20106;-94
2020/12/16 05:36:30;;;;;;;25.70;18.20;;;8.10;95.70;;;;;;5037478;28;20029;-94
2020/12/16 05:38:58;;;;;;;37.05;17.98;;;8.00;95.60;;;;;;5043142;28;20028;-94
2020/12/16 05:41:33;;;;;;;29.67;16.75;;;8.00;95.60;;;;;;5047283;28;20033;-93
2020/12/16 05:44:19;;;;;;;19.83;13.40;;;7.90;95.60;;;;;;5024495;28;20036;-94
2020/12/16 05:46:47;;;;;;;39.00;15.98;;;7.90;95.70;;;;;;5037429;28;20021;-94
2020/12/16 05:49:29;;;;;;;32.88;14.82;;;8.00;95.70;;;;;;5039439;28;20032;-94
2020/12/16 05:52:00;;;;;;;22.33;14.60;;;7.90;95.70;;;;;;5058586;28;20013;-94
2020/12/16 05:54:26;;;;;;;20.52;13.80;;;7.90;95.70;;;;;;5043743;28;20031;-92
2020/12/16 05:57:12;;;;;;;26.63;15.18;;;7.90;95.70;;;;;;5041244;28;20051;-93
2020/12/16 05:59:38;;;;;;;28.80;14.45;;;7.80;95.70;;;;;;5056796;28;20111;-93
2020/12/16 06:02:05;;;;;;;19.73;13.85;;;7.90;95.70;;;;;;5023674;28;20452;-93
2020/12/16 06:04:35;;;;;;;20.15;13.65;;;7.90;95.70;;;;;;5055816;28;20118;-93
2020/12/16 06:07:03;;;;;;;22.00;14.23;;;7.80;95.70;;;;;;5029281;28;20025;-92
2020/12/16 06:09:32;;;;;;;17.92;12.93;;;7.80;95.70;;;;;;5005895;28;20091;-92
2020/12/16 06:12:07;;;;;;;22.27;13.90;;;7.80;95.70;;;;;;5039833;28;20131;-93
2020/12/16 06:14:35;;;;;;;17.70;12.85;;;7.80;95.70;;;;;;5056481;28;20060;-93
2020/12/16 06:17:10;;;;;;;17.52;12.98;;;7.80;95.80;;;;;;5057158;28;20025;-94
2020/12/16 06:19:41;;;;;;;17.08;12.10;;;7.80;95.70;;;;;;5056921;28;20028;-91
2020/12/16 06:22:10;;;;;;;18.58;11.75;;;7.80;95.70;;;;;;5040729;28;20037;-93
2020/12/16 06:24:43;;;;;;;23.00;12.57;;;7.80;95.70;;;;;;5029293;23;20049;-90
2020/12/16 06:27:11;;;;;;;15.32;11.38;;;7.80;95.70;;;;;;5032627;28;20029;-88
2020/12/16 06:29:45;;;;;;;13.70;10.02;;;7.70;95.70;;;;;;5032654;28;20033;-89
2020/12/16 06:32:23;;;;;;;14.38;10.88;;;7.80;95.70;;;;;;5039516;28;20048;-88
2020/12/16 06:34:53;;;;;;;18.55;11.35;;;7.70;95.60;;;;;;5053190;28;20017;-88
2020/12/16 06:37:18;;;;;;;18.30;12.05;;;7.70;95.60;;;;;;5051774;28;20024;-88
2020/12/16 06:39:44;;;;;;;21.90;11.85;;;7.70;95.60;;;;;;4997341;28;20095;-89
2020/12/16 06:42:10;;;;;;;16.55;11.90;;;7.70;95.60;;;;;;5049793;28;20116;-89
2020/12/16 06:44:35;;;;;;;36.08;13.23;;;7.70;95.60;;;;;;5027441;28;20025;-89
2020/12/16 06:47:02;;;;;;;17.85;11.55;;;7.70;95.60;;;;;;5034702;28;20382;-89
2020/12/16 06:49:34;;;;;;;15.85;11.70;;;7.60;95.60;;;;;;5029630;28;20041;-88
2020/12/16 06:52:02;;;;;;;;;;;7.60;95.60;;;;;;5041793;28;20658;-89
2020/12/16 06:54:36;;;;;;;15.20;10.30;;;7.60;95.60;;;;;;5042913;28;19916;-90
2020/12/16 06:57:11;;;;;;;27.05;14.10;;;7.60;95.60;;;;;;5041787;28;20025;-90
2020/12/16 07:00:15;;;;;;;18.15;12.50;;;7.60;95.50;;;;;;5054101;28;20020;-89
2020/12/16 07:02:41;;;;;;;21.98;13.63;;;7.50;95.50;;;;;;5026651;28;20036;-88
2020/12/16 07:05:36;;;;;;;16.33;11.55;;;7.50;95.60;;;;;;5019254;28;20454;-90
2020/12/16 07:08:02;;;;;;;15.55;11.32;;;7.40;95.60;;;;;;5042875;28;20371;-89
2020/12/16 07:10:34;;;;;;;20.55;13.20;;;7.50;95.70;;;;;;5018505;28;20025;-90
2020/12/16 07:13:18;;;;;;;20.00;13.45;;;7.40;95.60;;;;;;5049081;28;20108;-88
2020/12/16 07:15:53;;;;;;;18.27;11.75;;;7.40;95.60;;;;;;5041771;28;20025;-88
2020/12/16 07:18:30;;;;;;;21.27;14.20;;;7.40;95.60;;;;;;5043901;28;20041;-90
2020/12/16 07:21:08;;;;;;;17.90;12.63;;;7.40;95.60;;;;;;5042519;28;20028;-90
2020/12/16 07:23:45;;;;;;;20.23;14.15;;;7.30;95.60;;;;;;5046962;28;20025;-88
2020/12/16 07:26:19;;;;;;;18.52;12.38;;;7.30;95.50;;;;;;5047619;28;20087;-89
2020/12/16 07:28:45;;;;;;;17.75;11.90;;;7.30;95.60;;;;;;5043350;28;20018;-89
2020/12/16 07:31:11;;;;;;;23.20;14.10;;;7.30;95.60;;;;;;5024176;28;20040;-89
2020/12/16 07:33:37;;;;;;;17.75;12.65;;;7.20;95.40;;;;;;5042116;28;20021;-89
2020/12/16 07:36:03;;;;;;;19.10;13.20;;;7.20;95.40;;;;;;5038105;28;20548;-88
2020/12/16 07:38:29;;;;;;;17.63;12.40;;;7.20;95.50;;;;;;5022025;28;20035;-89
2020/12/16 07:40:56;;;;;;;18.15;12.48;;;7.20;95.60;;;;;;5038227;28;20021;-88
2020/12/16 07:43:22;;;;;;;20.00;11.73;;;7.20;95.50;;;;;;5024422;28;20029;-88
2020/12/16 07:46:04;;;;;;;18.38;11.30;;;7.20;95.60;;;;;;5037325;28;20547;-88
2020/12/16 07:48:30;;;;;;;20.30;12.63;;;7.20;95.60;;;;;;5047714;28;20531;-88
2020/12/16 07:51:05;;;;;;;16.58;10.95;;;7.20;95.60;;;;;;5066076;28;20486;-88
2020/12/16 07:53:32;;;;;;;18.92;12.35;;;7.20;95.60;;;;;;5053482;28;20020;-87
2020/12/16 07:56:03;;;;;;;23.73;15.13;;;7.20;95.60;;;;;;5037058;28;20035;-88
2020/12/16 07:58:32;;;;;;;20.70;13.57;;;7.10;95.50;;;;;;5052405;28;20021;-88
2020/12/16 08:01:18;;;;;;;20.60;12.75;;;7.10;95.50;;;;;;5072017;28;20385;-87
2020/12/16 08:03:45;;;;;;;18.92;13.30;;;7.10;95.60;;;;;;5041490;28;20021;-88
2020/12/16 08:06:11;;;;;;;24.60;14.43;;;7.10;95.50;;;;;;5054872;28;20048;-87
2020/12/16 08:08:48;;;;;;;23.63;14.35;;;7.10;95.40;;;;;;5025005;28;20036;-88
2020/12/16 08:11:16;;;;;;;19.58;13.40;;;7.00;95.30;;;;;;5058648;28;20116;-87
2020/12/16 08:13:42;;;;;;;19.85;12.63;;;7.00;95.50;;;;;;5052380;28;20044;-88
2020/12/16 08:16:08;;;;;;;20.95;13.43;;;7.00;95.50;;;;;;5041714;28;20028;-88
2020/12/16 08:18:38;;;;;;;19.05;12.63;;;7.00;95.50;;;;;;5057276;28;20036;-89
2020/12/16 08:21:38;;;;;;;20.83;13.02;;;7.10;95.70;;;;;;5022903;28;20041;-89
2020/12/16 08:24:03;;;;;;;18.95;12.85;;;7.00;95.60;;;;;;5048783;28;20029;-90
2020/12/16 08:26:29;;;;;;;19.40;13.35;;;7.10;95.60;;;;;;5026032;28;20036;-90
2020/12/16 08:28:55;;;;;;;19.58;12.32;;;7.10;95.60;;;;;;5042892;28;20036;-88
2020/12/16 08:31:22;;;;;;;17.48;10.93;;;7.10;95.70;;;;;;5023709;28;20025;-88
2020/12/16 08:33:49;;;;;;;17.80;12.75;;;7.10;95.80;;;;;;5048164;28;20017;-88
2020/12/16 08:36:21;;;;;;;26.65;16.17;;;7.10;95.70;;;;;;5036150;28;20024;-88
2020/12/16 08:38:48;;;;;;;;;;;7.10;95.40;;;;;;5036020;28;20510;-88
2020/12/16 08:41:22;;;;;;;17.60;11.38;;;7.10;95.50;;;;;;5054245;28;20285;-88
2020/12/16 08:43:48;;;;;;;18.95;13.32;;;7.10;95.80;;;;;;5053852;28;20012;-88
2020/12/16 08:46:17;;;;;;;24.35;14.65;;;7.10;95.70;;;;;;5023355;28;20532;-88
2020/12/16 08:48:52;;;;;;;18.63;12.82;;;7.10;95.70;;;;;;5054505;28;20124;-88
2020/12/16 08:51:29;;;;;;;20.42;13.77;;;7.10;95.70;;;;;;5054098;28;20520;-89
2020/12/16 08:53:57;;;;;;;18.23;12.57;;;7.10;95.60;;;;;;5067251;28;20489;-89
2020/12/16 08:56:31;;;;;;;18.60;12.02;;;7.10;95.80;;;;;;5051868;28;20101;-89
2020/12/16 08:59:08;;;;;;;27.88;17.08;;;7.20;96.10;;;;;;5056732;28;20024;-89
2020/12/16 09:01:36;;;;;;;22.38;14.07;;;7.10;95.70;;;;;;5051225;28;20032;-88
2020/12/16 09:04:02;;;;;;;21.20;14.07;;;7.10;95.80;;;;;;5042787;28;20032;-89
2020/12/16 09:06:28;;;;;;;20.85;13.93;;;7.20;95.80;;;;;;5056800;28;20036;-87
2020/12/16 09:08:54;;;;;;;22.20;14.82;;;7.20;95.90;;;;;;5041895;28;20016;-89
2020/12/16 09:11:20;;;;;;;29.90;17.75;;;7.20;96.10;;;;;;5043785;28;20033;-88
2020/12/16 09:13:48;;;;;;;20.70;14.10;;;7.20;95.80;;;;;;5051867;28;20450;-89
2020/12/16 09:16:23;;;;;;;21.58;14.57;;;7.20;95.90;;;;;;5039946;28;20490;-89
2020/12/16 09:18:50;;;;;;;25.65;15.63;;;7.20;95.80;;;;;;5053144;28;20036;-89
2020/12/16 09:21:28;;;;;;;22.55;14.55;;;7.20;95.80;;;;;;5039630;28;20169;-89
2020/12/16 09:23:54;;;;;;;21.88;14.40;;;7.30;95.90;;;;;;5051482;28;20027;-88
2020/12/16 09:26:33;;;;;;;24.13;15.63;;;7.30;95.90;;;;;;5038363;28;20448;-88
2020/12/16 09:28:58;;;;;;;25.15;15.52;;;7.30;95.90;;;;;;5051084;28;20055;-89
2020/12/16 09:31:24;;;;;;;19.35;12.48;;;7.30;96.00;;;;;;5026534;28;20044;-88
2020/12/16 09:33:57;;;;;;;27.48;17.70;;;7.30;96.10;;;;;;5032663;28;20505;-88
2020/12/16 09:36:26;;;;;;;25.08;15.32;;;7.40;96.00;;;;;;5055984;28;20385;-88
2020/12/16 09:39:04;;;;;;;18.83;12.57;;;7.40;96.10;;;;;;5053077;28;20490;-88
2020/12/16 09:41:44;;;;;;;26.50;16.13;;;7.50;96.20;;;;;;5047492;28;20059;-89
2020/12/16 09:44:23;;;;;;;39.50;22.48;;;7.50;96.20;;;;;;5049904;28;20029;-88
2020/12/16 09:46:48;;;;;;;23.60;15.00;;;7.50;96.20;;;;;;5039283;28;20036;-88
2020/12/16 09:49:19;;;;;;;39.25;21.30;;;7.60;96.30;;;;;;5035586;28;20028;-88
2020/12/16 09:51:45;;;;;;;36.70;23.55;;;7.60;96.30;;;;;;5053609;28;20021;-88
2020/12/16 09:54:10;;;;;;;33.80;20.08;;;7.70;96.30;;;;;;5033083;28;20477;-88
2020/12/16 09:56:36;;;;;;;28.17;17.63;;;7.70;96.40;;;;;;5043216;28;20424;-88
2020/12/16 09:59:02;;;;;;;27.48;17.15;;;7.80;96.50;;;;;;5046254;28;20534;-88
2020/12/16 10:01:28;;;;;;;29.33;17.35;;;7.80;96.50;;;;;;5033812;28;20382;-88
2020/12/16 10:03:54;;;;;;;23.20;14.50;;;7.80;96.60;;;;;;5054954;28;20017;-88
2020/12/16 10:06:19;;;;;;;40.60;23.80;;;7.90;96.60;;;;;;5037859;28;20029;-88
2020/12/16 10:08:45;;;;;;;27.20;16.85;;;8.00;96.60;;;;;;5022170;28;20027;-87
2020/12/16 10:11:14;;;;;;;33.10;19.58;;;8.00;96.70;;;;;;5052367;28;20030;-88
2020/12/16 10:13:42;;;;;;;24.15;15.68;;;8.10;96.70;;;;;;5038934;28;20378;-88
2020/12/16 10:16:08;;;;;;;26.70;16.38;;;8.20;96.80;;;;;;5048543;28;20397;-89
2020/12/16 10:18:34;;;;;;;29.35;18.55;;;8.20;96.70;;;;;;5052471;28;20036;-89
2020/12/16 10:21:00;;;;;;;32.13;19.38;;;8.20;96.60;;;;;;5021935;28;20028;-89
2020/12/16 10:23:25;;;;;;;25.13;15.35;;;8.30;96.60;;;;;;5018540;28;20024;-88
2020/12/16 10:25:51;;;;;;;23.20;15.10;;;8.30;96.70;;;;;;5018581;28;20087;-88
2020/12/16 10:28:18;;;;;;;22.85;14.77;;;8.40;96.70;;;;;;5018296;28;20505;-88
2020/12/16 10:30:44;;;;;;;25.02;16.20;;;8.40;96.70;;;;;;4998252;28;20036;-89
2020/12/16 10:33:10;;;;;;;21.48;14.40;;;8.50;96.70;;;;;;5007268;28;20043;-90
2020/12/16 10:35:35;;;;;;;21.42;13.30;;;8.40;96.70;;;;;;5012856;28;20072;-89
2020/12/16 10:38:01;;;;;;;24.88;15.18;;;8.50;96.70;;;;;;5011479;28;20063;-89
2020/12/16 10:40:31;;;;;;;21.42;14.43;;;8.50;96.70;;;;;;5033238;28;20108;-89
2020/12/16 10:42:59;;;;;;;19.63;13.32;;;8.50;96.70;;;;;;5010988;28;20049;-89
2020/12/16 10:45:25;;;;;;;26.30;16.83;;;8.50;96.80;;;;;;5027728;28;20559;-90
2020/12/16 10:47:57;;;;;;;23.95;14.50;;;8.60;96.80;;;;;;4992913;28;20081;-88
2020/12/16 10:50:30;;;;;;;20.27;13.43;;;8.70;96.90;;;;;;4994032;28;20085;-89
2020/12/16 10:52:59;;;;;;;29.30;18.25;;;8.70;96.90;;;;;;4992431;28;20049;-89
2020/12/16 10:55:25;;;;;;;24.90;15.43;;;8.80;96.90;;;;;;5004735;28;20091;-89
2020/12/16 10:57:52;;;;;;;22.73;15.35;;;8.80;96.90;;;;;;4972255;28;20038;-89
2020/12/16 11:00:18;;;;;;;22.20;14.65;;;8.90;97.00;;;;;;4975909;28;20096;-89
2020/12/16 11:02:44;;;;;;;26.85;17.65;;;8.90;97.00;;;;;;4992257;28;20037;-89
2020/12/16 11:05:10;;;;;;;21.42;14.48;;;9.00;96.90;;;;;;4991765;28;20034;-89
2020/12/16 11:07:36;;;;;;;22.10;14.60;;;9.10;97.00;;;;;;4977902;28;20176;-89
2020/12/16 11:10:02;;;;;;;24.13;15.60;;;9.10;96.90;;;;;;4977753;28;20124;-89
2020/12/16 11:12:27;;;;;;;20.58;14.27;;;9.10;96.90;;;;;;4978006;28;20065;-89
2020/12/16 11:14:53;;;;;;;21.67;15.63;;;9.20;96.90;;;;;;4977539;28;20034;-89
2020/12/16 11:17:19;;;;;;;20.27;13.50;;;9.30;96.90;;;;;;4977585;28;20018;-89
2020/12/16 11:19:45;;;;;;;20.23;14.82;;;9.30;97.00;;;;;;5010953;28;20021;-89
2020/12/16 11:22:11;;;;;;;20.00;14.32;;;9.40;96.90;;;;;;5020732;28;20029;-89
2020/12/16 11:24:37;;;;;;;22.63;14.95;;;9.50;97.00;;;;;;5026948;28;20492;-89
2020/12/16 11:27:03;;;;;;;17.35;12.85;;;9.50;96.90;;;;;;4996679;28;20033;-89
2020/12/16 11:29:29;;;;;;;15.90;12.18;;;9.50;96.70;;;;;;5030825;28;20037;-89
2020/12/16 11:32:01;;;;;;;16.20;12.00;;;9.60;96.80;;;;;;4991906;28;20064;-89
2020/12/16 11:34:28;;;;;;;17.88;11.88;;;9.70;96.80;;;;;;5034491;28;20059;-89
2020/12/16 11:37:09;;;;;;;18.75;11.45;;;9.70;96.70;;;;;;5030884;28;20018;-89
2020/12/16 11:39:34;;;;;;;14.93;11.00;;;9.70;96.60;;;;;;5026834;28;20104;-89
2020/12/16 11:42:03;;;;;;;15.02;11.85;;;9.80;96.50;;;;;;5016511;28;20032;-89
2020/12/16 11:47:51;;;;;;;13.00;9.70;;;9.90;96.60;;;;;;5043172;28;20390;-90
2020/12/16 11:50:17;;;;;;;14.23;10.20;;;9.90;96.50;;;;;;5023921;28;20017;-90
2020/12/16 11:52:42;;;;;;;14.88;10.68;;;9.90;96.50;;;;;;5021433;28;20027;-88
2020/12/16 11:55:08;;;;;;;13.55;10.15;;;9.90;96.30;;;;;;5007516;28;20579;-89
2020/12/16 11:57:34;;;;;;;13.43;10.27;;;10.00;96.50;;;;;;5013368;28;20025;-88
2020/12/16 11:59:59;;;;;;;16.00;12.05;;;10.00;96.50;;;;;;5017949;28;20036;-89
2020/12/16 12:02:25;;;;;;;14.75;10.50;;;10.10;96.40;;;;;;5003912;28;20025;-89
2020/12/16 12:04:51;;;;;;;14.00;10.18;;;10.10;96.10;;;;;;5004615;28;20025;-89
2020/12/16 12:07:18;;;;;;;13.50;9.98;;;10.10;95.90;;;;;;5012542;28;20022;-89
2020/12/16 12:09:43;;;;;;;13.15;9.80;;;10.10;96.10;;;;;;5029999;28;20119;-89
2020/12/16 12:12:09;;;;;;;13.73;10.15;;;10.20;96.20;;;;;;5020308;28;20057;-89
2020/12/16 12:14:35;;;;;;;12.30;9.30;;;10.20;96.30;;;;;;5022058;28;20033;-90
2020/12/16 12:17:00;;;;;;;16.50;10.75;;;10.30;96.30;;;;;;5035133;28;20024;-89
2020/12/16 12:19:27;;;;;;;14.75;10.90;;;10.30;96.30;;;;;;5007613;28;20041;-89
2020/12/16 12:21:52;;;;;;;14.18;10.25;;;10.40;96.50;;;;;;5018632;28;20029;-89
2020/12/16 12:24:18;;;;;;;13.95;9.23;;;10.40;96.30;;;;;;5045190;23;21472;-93
2020/12/16 12:26:43;;;;;;;14.20;10.55;;;10.50;96.40;;;;;;5050885;28;20038;-92
2020/12/16 12:29:09;;;;;;;13.55;9.80;;;10.50;96.30;;;;;;5046672;28;20031;-93
2020/12/16 12:31:41;;;;;;;14.13;10.15;;;10.50;96.30;;;;;;5081542;28;20097;-93
2020/12/16 12:34:07;;;;;;;12.70;10.25;;;10.60;96.20;;;;;;5070690;28;20033;-93
2020/12/16 12:36:32;;;;;;;16.55;11.07;;;10.60;96.20;;;;;;5039558;28;20598;-93
2020/12/16 12:38:58;;;;;;;13.95;10.65;;;10.70;96.20;;;;;;5050691;28;20465;-94
2020/12/16 12:41:24;;;;;;;13.48;10.85;;;10.70;96.10;;;;;;5047383;28;20480;-94
2020/12/16 12:43:49;;;;;;;16.08;10.57;;;10.70;95.80;;;;;;5041916;28;20358;-92
2020/12/16 12:46:15;;;;;;;14.07;9.98;;;10.60;95.80;;;;;;5060841;28;20505;-92
2020/12/16 12:48:41;;;;;;;14.85;11.35;;;10.70;95.80;;;;;;5066048;28;20035;-93
2020/12/16 12:51:07;;;;;;;15.13;10.45;;;10.70;95.50;;;;;;5077580;28;20047;-92